createdAt,value
2022-10-31T00:01:26.210Z,17.75
2022-10-31T00:03:54.071Z,17.83
2022-10-31T00:06:22.778Z,20.88
2022-10-31T00:09:01.592Z,20.00
2022-10-31T00:11:29.053Z,18.20
2022-10-31T00:13:58.329Z,19.05
2022-10-31T00:16:27.054Z,19.70
2022-10-31T00:18:56.807Z,15.25
2022-10-31T00:21:25.320Z,15.38
2022-10-31T00:23:53.010Z,15.70
2022-10-31T00:26:21.147Z,16.52
2022-10-31T00:28:48.723Z,19.70
2022-10-31T00:31:16.219Z,19.65
2022-10-31T00:33:43.821Z,19.55
2022-10-31T00:36:17.758Z,16.38
2022-10-31T00:38:46.805Z,18.25
2022-10-31T00:41:16.432Z,14.73
2022-10-31T00:43:44.286Z,18.05
2022-10-31T00:46:12.867Z,17.65
2022-10-31T00:48:40.300Z,20.00
2022-10-31T00:51:09.457Z,20.30
2022-10-31T00:53:36.951Z,15.10
2022-10-31T00:56:04.929Z,22.08
2022-10-31T00:58:32.551Z,15.65
2022-10-31T01:00:59.960Z,25.48
2022-10-31T01:03:30.646Z,17.75
2022-10-31T01:06:05.474Z,18.42
2022-10-31T01:08:38.065Z,20.15
2022-10-31T01:11:08.545Z,15.60
2022-10-31T01:13:37.215Z,21.75
2022-10-31T01:16:07.420Z,19.45
2022-10-31T01:18:35.560Z,14.38
2022-10-31T01:21:07.057Z,16.90
2022-10-31T01:23:35.101Z,18.40
2022-10-31T01:26:06.458Z,21.17
2022-10-31T01:28:35.078Z,20.20
2022-10-31T01:31:09.067Z,19.75
2022-10-31T01:33:37.945Z,18.45
2022-10-31T01:36:25.119Z,21.42
2022-10-31T01:38:54.480Z,18.42
2022-10-31T01:41:28.394Z,17.90
2022-10-31T01:43:58.815Z,23.48
2022-10-31T01:46:36.573Z,18.95
2022-10-31T01:49:10.130Z,17.13
2022-10-31T01:51:41.902Z,17.63
2022-10-31T01:54:13.588Z,19.58
2022-10-31T01:56:45.039Z,15.13
2022-10-31T01:59:18.946Z,23.10
2022-10-31T02:01:48.702Z,19.33
2022-10-31T02:04:16.838Z,17.80
2022-10-31T02:06:55.466Z,17.92
2022-10-31T02:09:25.021Z,24.88
2022-10-31T02:11:58.520Z,17.80
2022-10-31T02:14:29.971Z,15.18
2022-10-31T02:16:57.607Z,20.60
2022-10-31T02:19:52.233Z,18.05
2022-10-31T02:22:50.636Z,19.85
2022-10-31T02:25:24.066Z,16.88
2022-10-31T02:28:16.201Z,20.15
2022-10-31T02:31:07.289Z,19.02
2022-10-31T02:33:41.900Z,19.48
2022-10-31T02:36:38.460Z,17.08
2022-10-31T02:39:24.640Z,18.40
2022-10-31T02:42:15.837Z,16.50
2022-10-31T02:44:56.612Z,22.45
2022-10-31T02:47:30.288Z,22.85
2022-10-31T02:50:15.160Z,21.27
2022-10-31T02:52:42.583Z,20.55
2022-10-31T02:55:11.498Z,21.55
2022-10-31T02:57:42.723Z,20.35
2022-10-31T03:00:10.753Z,18.10
2022-10-31T03:02:44.118Z,16.38
2022-10-31T03:05:52.053Z,18.92
2022-10-31T03:08:34.406Z,17.98
2022-10-31T03:11:04.693Z,20.50
2022-10-31T03:13:31.989Z,19.60
2022-10-31T03:16:27.961Z,20.33
2022-10-31T03:19:30.269Z,19.88
2022-10-31T03:22:03.558Z,20.77
2022-10-31T03:24:36.660Z,21.85
2022-10-31T03:27:07.458Z,17.60
2022-10-31T03:29:38.567Z,21.55
2022-10-31T03:32:14.420Z,22.55
2022-10-31T03:34:43.729Z,19.17
2022-10-31T03:37:15.373Z,20.58
2022-10-31T03:39:45.556Z,20.42
2022-10-31T03:42:17.455Z,18.33
2022-10-31T03:44:52.420Z,17.17
2022-10-31T03:47:19.856Z,18.27
2022-10-31T03:49:49.938Z,20.13
2022-10-31T03:52:29.448Z,20.05
2022-10-31T03:55:03.671Z,20.73
2022-10-31T03:57:41.871Z,16.77
2022-10-31T04:00:13.925Z,15.75
2022-10-31T04:03:01.818Z,20.75
2022-10-31T04:05:32.454Z,18.95
2022-10-31T04:08:04.386Z,16.88
2022-10-31T04:10:35.637Z,20.77
2022-10-31T04:13:09.434Z,17.17
2022-10-31T04:15:46.713Z,15.75
2022-10-31T04:18:14.416Z,15.55
2022-10-31T04:20:42.675Z,16.42
2022-10-31T04:23:23.275Z,15.38
2022-10-31T04:25:51.598Z,16.70
2022-10-31T04:30:53.129Z,25.00
2022-10-31T04:33:20.873Z,19.50
2022-10-31T04:35:48.871Z,19.98
2022-10-31T04:38:16.441Z,18.30
2022-10-31T04:40:46.177Z,18.52
2022-10-31T04:43:22.420Z,15.95
2022-10-31T04:45:52.809Z,18.20
2022-10-31T04:48:20.318Z,22.98
2022-10-31T04:50:48.602Z,22.50
2022-10-31T04:53:18.989Z,15.40
2022-10-31T04:56:09.381Z,19.05
2022-10-31T04:58:42.078Z,17.27
2022-10-31T05:01:11.178Z,19.38
2022-10-31T05:03:40.643Z,18.80
2022-10-31T05:06:08.467Z,18.77
2022-10-31T05:08:37.176Z,20.77
2022-10-31T05:11:07.862Z,26.58
2022-10-31T05:13:35.259Z,23.90
2022-10-31T05:16:14.732Z,22.20
2022-10-31T05:19:00.492Z,24.00
2022-10-31T05:21:46.530Z,23.85
2022-10-31T05:24:14.348Z,29.70
2022-10-31T05:26:47.289Z,29.40
2022-10-31T05:29:14.901Z,25.92
2022-10-31T05:31:42.353Z,26.65
2022-10-31T05:34:20.281Z,26.17
2022-10-31T05:37:26.158Z,28.17
2022-10-31T05:39:53.598Z,21.05
2022-10-31T05:42:21.173Z,23.63
2022-10-31T05:44:49.008Z,23.45
2022-10-31T05:47:39.103Z,30.20
2022-10-31T05:50:31.295Z,27.25
2022-10-31T05:53:08.889Z,26.30
2022-10-31T05:55:38.714Z,26.27
2022-10-31T05:58:12.510Z,26.55
2022-10-31T06:00:43.189Z,28.45
2022-10-31T06:03:12.075Z,25.30
2022-10-31T06:05:50.810Z,31.35
2022-10-31T06:08:22.377Z,24.63
2022-10-31T06:10:50.650Z,24.20
2022-10-31T06:13:24.014Z,25.83
2022-10-31T06:16:00.412Z,27.38
2022-10-31T06:18:35.019Z,27.10
2022-10-31T06:21:02.512Z,25.50
2022-10-31T06:23:29.828Z,27.55
2022-10-31T06:26:17.285Z,25.90
2022-10-31T06:28:44.811Z,28.98
2022-10-31T06:31:27.567Z,31.98
2022-10-31T06:33:54.978Z,25.88
2022-10-31T06:36:22.546Z,29.60
2022-10-31T06:38:50.171Z,29.95
2022-10-31T06:41:21.462Z,26.52
2022-10-31T06:43:52.733Z,24.33
2022-10-31T06:46:38.596Z,25.75
2022-10-31T06:49:26.759Z,24.15
2022-10-31T06:51:55.718Z,25.52
2022-10-31T06:54:23.380Z,26.48
2022-10-31T06:56:50.815Z,26.25
2022-10-31T06:59:21.190Z,30.20
2022-10-31T07:02:11.525Z,24.23
2022-10-31T07:04:40.949Z,29.52
2022-10-31T07:07:09.061Z,25.10
2022-10-31T07:09:38.667Z,24.88
2022-10-31T07:12:06.722Z,28.02
2022-10-31T07:14:38.214Z,25.92
2022-10-31T07:17:07.337Z,27.58
2022-10-31T07:19:39.509Z,27.50
2022-10-31T07:22:07.017Z,24.85
2022-10-31T07:24:35.628Z,25.33
2022-10-31T07:27:21.772Z,28.15
2022-10-31T07:29:49.712Z,22.75
2022-10-31T07:32:18.017Z,100.25
2022-10-31T07:34:54.153Z,26.38
2022-10-31T07:37:23.675Z,19.42
2022-10-31T07:39:52.805Z,18.10
2022-10-31T07:42:20.307Z,28.63
2022-10-31T07:44:50.531Z,22.58
2022-10-31T07:47:55.746Z,28.13
2022-10-31T07:50:47.213Z,24.48
2022-10-31T07:53:43.350Z,26.15
2022-10-31T07:56:23.371Z,32.03
2022-10-31T07:58:51.006Z,31.35
2022-10-31T08:01:18.525Z,28.67
2022-10-31T08:03:57.364Z,30.83
2022-10-31T08:07:00.359Z,31.08
2022-10-31T08:09:32.764Z,24.30
2022-10-31T08:12:05.045Z,33.92
2022-10-31T08:14:34.326Z,28.83
2022-10-31T08:17:02.358Z,26.25
2022-10-31T08:19:38.252Z,24.08
2022-10-31T08:22:05.725Z,25.63
2022-10-31T08:24:33.310Z,25.52
2022-10-31T08:27:00.688Z,24.40
2022-10-31T08:29:28.081Z,24.45
2022-10-31T08:31:55.500Z,69.38
2022-10-31T08:34:45.975Z,28.95
2022-10-31T08:37:31.960Z,27.67
2022-10-31T08:39:59.424Z,20.25
2022-10-31T08:42:26.856Z,23.02
2022-10-31T08:44:54.267Z,22.27
2022-10-31T08:47:23.222Z,25.40
2022-10-31T08:49:50.591Z,27.92
2022-10-31T08:52:17.896Z,24.23
2022-10-31T08:54:48.093Z,26.92
2022-10-31T08:57:47.991Z,27.15
2022-10-31T09:00:15.978Z,28.23
2022-10-31T09:02:58.770Z,28.23
2022-10-31T09:05:26.702Z,30.77
2022-10-31T09:07:59.204Z,30.05
2022-10-31T09:10:28.756Z,30.63
2022-10-31T09:13:09.415Z,26.92
2022-10-31T09:16:08.890Z,29.52
2022-10-31T09:18:37.294Z,29.25
2022-10-31T09:21:04.906Z,29.10
2022-10-31T09:23:32.312Z,30.90
2022-10-31T09:26:04.436Z,32.88
2022-10-31T09:28:33.254Z,29.15
2022-10-31T09:31:13.637Z,33.50
2022-10-31T09:34:04.397Z,27.88
2022-10-31T09:36:40.705Z,30.60
2022-10-31T09:39:14.972Z,31.92
2022-10-31T09:41:54.495Z,43.28
2022-10-31T09:44:38.602Z,62.50
2022-10-31T09:47:24.834Z,37.65
2022-10-31T09:50:23.214Z,38.33
2022-10-31T09:53:32.537Z,45.70
2022-10-31T09:56:03.219Z,39.75
2022-10-31T09:58:35.393Z,38.83
2022-10-31T10:01:07.613Z,41.85
2022-10-31T10:03:48.148Z,41.53
2022-10-31T10:06:36.925Z,41.22
2022-10-31T10:09:28.272Z,43.67
2022-10-31T10:12:40.346Z,45.58
2022-10-31T10:15:22.872Z,40.42
2022-10-31T10:18:02.920Z,41.97
2022-10-31T10:20:56.008Z,40.28
2022-10-31T10:23:40.229Z,39.63
2022-10-31T10:26:18.924Z,42.60
2022-10-31T10:29:03.210Z,40.47
2022-10-31T10:31:38.144Z,46.42
2022-10-31T10:34:19.972Z,45.97
2022-10-31T10:36:56.392Z,74.00
2022-10-31T10:39:36.381Z,60.00
2022-10-31T10:42:31.094Z,51.78
2022-10-31T10:45:17.112Z,79.35
2022-10-31T10:47:51.259Z,86.15
2022-10-31T10:50:21.742Z,115.47
2022-10-31T10:53:09.341Z,44.88
2022-10-31T10:55:46.117Z,43.70
2022-10-31T10:58:13.552Z,41.05
2022-10-31T11:00:48.919Z,44.58
2022-10-31T11:03:20.577Z,43.13
2022-10-31T11:05:55.353Z,40.58
2022-10-31T11:08:36.185Z,37.03
2022-10-31T11:11:05.222Z,43.60
2022-10-31T11:13:34.549Z,46.25
2022-10-31T11:16:10.801Z,44.83
2022-10-31T11:18:42.427Z,49.20
2022-10-31T11:21:25.529Z,41.45
2022-10-31T11:24:12.328Z,40.70
2022-10-31T11:26:41.580Z,43.80
2022-10-31T11:29:16.753Z,42.33
2022-10-31T11:31:46.330Z,44.83
2022-10-31T11:34:36.098Z,41.08
2022-10-31T11:37:30.245Z,41.22
2022-10-31T11:40:05.746Z,46.70
2022-10-31T11:42:42.531Z,40.72
2022-10-31T11:45:29.469Z,44.03
2022-10-31T11:47:59.931Z,41.03
2022-10-31T11:50:39.554Z,37.38
2022-10-31T11:53:17.784Z,35.13
2022-10-31T11:55:46.883Z,37.33
2022-10-31T11:58:26.642Z,45.25
2022-10-31T12:00:56.690Z,39.97
2022-10-31T12:03:23.980Z,44.13
2022-10-31T12:06:01.336Z,51.78
2022-10-31T12:08:34.621Z,43.92
2022-10-31T12:11:23.169Z,49.38
2022-10-31T12:14:10.584Z,62.75
2022-10-31T12:16:50.030Z,126.40
2022-10-31T12:19:42.436Z,68.38
2022-10-31T12:22:14.988Z,48.63
2022-10-31T12:25:17.846Z,40.88
2022-10-31T12:27:54.585Z,39.10
2022-10-31T12:30:27.673Z,38.03
2022-10-31T12:33:19.443Z,38.92
2022-10-31T12:36:05.502Z,37.28
2022-10-31T12:38:58.624Z,48.13
2022-10-31T12:42:07.706Z,58.97
2022-10-31T12:44:59.677Z,40.30
2022-10-31T12:48:00.487Z,38.10
2022-10-31T12:50:39.800Z,36.78
2022-10-31T12:56:00.535Z,40.05
2022-10-31T12:58:33.508Z,38.88
2022-10-31T13:01:18.679Z,37.33
2022-10-31T13:03:59.079Z,36.03
2022-10-31T13:06:34.402Z,46.90
2022-10-31T13:09:08.646Z,40.60
2022-10-31T13:11:48.054Z,37.05
2022-10-31T13:14:31.008Z,37.03
2022-10-31T13:17:01.884Z,31.70
2022-10-31T13:19:44.389Z,31.50
2022-10-31T13:22:15.912Z,150.27
2022-10-31T13:25:10.902Z,111.88
2022-10-31T13:27:52.006Z,54.85
2022-10-31T13:30:22.005Z,44.67
2022-10-31T13:33:09.541Z,53.92
2022-10-31T13:36:02.165Z,39.30
2022-10-31T13:39:04.903Z,38.83
2022-10-31T13:42:04.289Z,40.42
2022-10-31T13:44:38.799Z,34.08
2022-10-31T13:47:28.088Z,31.70
2022-10-31T13:50:33.251Z,29.00
2022-10-31T13:53:17.781Z,37.63
2022-10-31T13:55:48.253Z,33.80
2022-10-31T13:58:28.576Z,36.22
2022-10-31T14:01:11.486Z,32.55
2022-10-31T14:06:41.642Z,34.67
2022-10-31T14:09:26.889Z,37.97
2022-10-31T14:11:55.606Z,30.88
2022-10-31T14:14:34.729Z,33.90
2022-10-31T14:17:02.629Z,34.28
2022-10-31T14:19:30.092Z,33.72
2022-10-31T14:22:00.668Z,24.17
2022-10-31T14:24:27.912Z,28.30
2022-10-31T14:26:58.207Z,40.20
2022-10-31T14:29:29.065Z,30.63
2022-10-31T14:31:58.440Z,31.40
2022-10-31T14:34:32.167Z,30.67
2022-10-31T14:37:33.111Z,34.60
2022-10-31T14:40:43.224Z,34.80
2022-10-31T14:43:25.602Z,27.92
2022-10-31T14:46:18.898Z,27.92
2022-10-31T14:49:13.951Z,29.08
2022-10-31T14:51:48.192Z,30.60
2022-10-31T14:54:33.965Z,31.17
2022-10-31T14:57:13.677Z,26.45
2022-10-31T14:59:49.754Z,22.25
2022-10-31T15:02:24.158Z,31.35
2022-10-31T15:04:53.585Z,30.58
2022-10-31T15:07:28.367Z,24.52
2022-10-31T15:10:07.961Z,24.80
2022-10-31T15:15:13.877Z,21.58
2022-10-31T15:17:45.551Z,24.45
2022-10-31T15:20:20.437Z,24.40
2022-10-31T15:22:48.880Z,30.23
2022-10-31T15:25:22.274Z,27.15
2022-10-31T15:27:50.881Z,27.25
2022-10-31T15:30:23.959Z,27.52
2022-10-31T15:32:58.261Z,25.52
2022-10-31T15:35:31.588Z,25.27
2022-10-31T15:38:00.997Z,23.92
2022-10-31T15:40:31.472Z,28.90
2022-10-31T15:43:05.945Z,32.50
2022-10-31T15:45:33.431Z,27.23
2022-10-31T15:48:04.445Z,27.00
2022-10-31T15:50:41.583Z,28.63
2022-10-31T15:53:37.965Z,27.40
2022-10-31T15:56:09.702Z,27.40
2022-10-31T15:58:48.969Z,27.38
2022-10-31T16:01:28.849Z,38.85
2022-10-31T16:04:08.619Z,33.47
2022-10-31T16:06:36.019Z,29.20
2022-10-31T16:09:06.178Z,41.05
2022-10-31T16:11:33.476Z,28.25
2022-10-31T16:14:03.444Z,34.00
2022-10-31T16:16:35.777Z,33.30
2022-10-31T16:19:06.693Z,36.03
2022-10-31T16:21:39.544Z,35.03
2022-10-31T16:24:21.123Z,35.00
2022-10-31T16:26:53.739Z,28.98
2022-10-31T16:29:45.507Z,34.08
2022-10-31T16:32:52.201Z,39.72
2022-10-31T16:35:27.057Z,34.58
2022-10-31T16:37:55.256Z,35.50
2022-10-31T16:40:22.666Z,37.45
2022-10-31T16:42:50.237Z,28.70
2022-10-31T16:45:23.946Z,36.72
2022-10-31T16:47:52.061Z,34.13
2022-10-31T16:50:25.448Z,43.38
2022-10-31T16:53:13.761Z,38.08
2022-10-31T16:55:46.163Z,32.53
2022-10-31T16:58:21.584Z,31.23
2022-10-31T17:00:49.231Z,35.75
2022-10-31T17:03:16.680Z,31.60
2022-10-31T17:05:44.208Z,34.55
2022-10-31T17:08:11.955Z,43.72
2022-10-31T17:10:40.710Z,33.55
2022-10-31T17:13:15.552Z,43.67
2022-10-31T17:15:46.490Z,43.60
2022-10-31T17:18:15.526Z,44.25
2022-10-31T17:20:43.481Z,36.58
2022-10-31T17:23:14.975Z,43.80
2022-10-31T17:25:43.990Z,32.78
2022-10-31T17:28:13.869Z,137.52
2022-10-31T17:30:42.836Z,40.80
2022-10-31T17:33:15.271Z,36.97
2022-10-31T17:35:44.674Z,38.80
2022-10-31T17:38:12.714Z,45.75
2022-10-31T17:40:42.293Z,34.08
2022-10-31T17:43:11.041Z,38.63
2022-10-31T17:45:40.443Z,32.30
2022-10-31T17:48:10.817Z,39.08
2022-10-31T17:50:41.670Z,33.08
2022-10-31T17:53:09.098Z,40.60
2022-10-31T17:55:37.959Z,44.28
2022-10-31T17:58:05.696Z,34.13
2022-10-31T18:00:33.864Z,40.00
2022-10-31T18:03:03.692Z,39.33
2022-10-31T18:05:31.514Z,37.35
2022-10-31T18:08:03.881Z,45.33
2022-10-31T18:10:34.391Z,35.72
2022-10-31T18:13:03.025Z,41.60
2022-10-31T18:15:30.583Z,36.80
2022-10-31T18:17:58.141Z,35.95
2022-10-31T18:20:25.645Z,46.60
2022-10-31T18:22:55.688Z,42.15
2022-10-31T18:25:23.744Z,35.05
2022-10-31T18:27:51.036Z,36.55
2022-10-31T18:30:21.338Z,43.38
2022-10-31T18:32:54.504Z,38.55
2022-10-31T18:35:21.891Z,36.17
2022-10-31T18:37:49.330Z,37.05
2022-10-31T18:40:18.292Z,41.47
2022-10-31T18:42:45.618Z,35.38
2022-10-31T18:45:31.142Z,38.15
2022-10-31T18:48:00.681Z,46.63
2022-10-31T18:50:28.225Z,39.03
2022-10-31T18:52:55.770Z,36.20
2022-10-31T18:55:25.760Z,36.22
2022-10-31T18:57:53.104Z,40.30
2022-10-31T19:00:20.565Z,39.03
2022-10-31T19:02:48.041Z,38.90
2022-10-31T19:05:15.460Z,35.00
2022-10-31T19:07:42.817Z,39.28
2022-10-31T19:10:10.662Z,42.85
2022-10-31T19:12:38.673Z,46.03
2022-10-31T19:15:06.507Z,42.00
2022-10-31T19:17:33.859Z,37.90
2022-10-31T19:20:02.421Z,39.47
2022-10-31T19:22:31.529Z,40.13
2022-10-31T19:25:00.475Z,39.15
2022-10-31T19:27:28.275Z,41.47
2022-10-31T19:29:55.589Z,40.03
2022-10-31T19:32:22.888Z,41.67
2022-10-31T19:34:50.223Z,36.05
2022-10-31T19:37:17.508Z,43.03
2022-10-31T19:39:44.864Z,41.63
2022-10-31T19:42:12.293Z,37.15
2022-10-31T19:44:39.772Z,39.97
2022-10-31T19:47:07.109Z,37.78
2022-10-31T19:49:34.504Z,40.92
2022-10-31T19:52:01.921Z,41.67
2022-10-31T19:54:29.357Z,40.10
2022-10-31T19:56:56.735Z,40.63
2022-10-31T19:59:25.859Z,41.70
2022-10-31T20:01:53.343Z,39.70
2022-10-31T20:04:21.818Z,39.58
2022-10-31T20:06:49.175Z,34.65
2022-10-31T20:09:16.472Z,34.95
2022-10-31T20:11:47.889Z,42.75
2022-10-31T20:14:17.568Z,37.78
2022-10-31T20:16:46.216Z,35.47
2022-10-31T20:19:14.029Z,39.58
2022-10-31T20:21:44.201Z,37.55
2022-10-31T20:24:11.962Z,39.15
2022-10-31T20:26:40.789Z,48.83
2022-10-31T20:29:13.034Z,46.30
2022-10-31T20:31:40.374Z,44.75
2022-10-31T20:34:07.737Z,43.17
2022-10-31T20:36:36.696Z,50.00
2022-10-31T20:39:04.806Z,39.72
2022-10-31T20:41:32.367Z,49.67
2022-10-31T20:44:02.391Z,44.20
2022-10-31T20:46:30.666Z,37.97
2022-10-31T20:48:58.067Z,41.10
2022-10-31T20:51:31.682Z,40.42
2022-10-31T20:54:00.143Z,39.13
2022-10-31T20:56:28.610Z,39.05
2022-10-31T20:58:57.265Z,36.70
2022-10-31T21:01:30.327Z,38.85
2022-10-31T21:03:58.896Z,36.92
2022-10-31T21:06:27.285Z,39.47
2022-10-31T21:08:55.294Z,36.45
2022-10-31T21:11:25.652Z,32.15
2022-10-31T21:13:53.906Z,39.33
2022-10-31T21:16:36.436Z,36.75
2022-10-31T21:19:04.897Z,40.00
2022-10-31T21:21:35.094Z,32.80
2022-10-31T21:24:10.505Z,39.85
2022-10-31T21:26:41.526Z,38.10
2022-10-31T21:29:10.620Z,33.38
2022-10-31T21:31:39.074Z,39.88
2022-10-31T21:34:07.164Z,35.47
2022-10-31T21:36:35.185Z,34.67
2022-10-31T21:39:03.671Z,39.47
2022-10-31T21:41:30.971Z,40.47
2022-10-31T21:43:58.637Z,30.40
2022-10-31T21:46:29.419Z,37.72
2022-10-31T21:48:57.974Z,34.83
2022-10-31T21:51:27.684Z,39.15
2022-10-31T21:54:14.390Z,34.65
2022-10-31T21:56:42.078Z,36.80
2022-10-31T21:59:10.096Z,32.05
2022-10-31T22:01:37.811Z,36.47
2022-10-31T22:04:06.023Z,36.08
2022-10-31T22:06:33.750Z,31.85
2022-10-31T22:09:02.810Z,33.47
2022-10-31T22:11:30.306Z,35.45
2022-10-31T22:13:59.981Z,34.78
2022-10-31T22:16:29.231Z,37.90
2022-10-31T22:18:58.987Z,36.03
2022-10-31T22:21:28.460Z,32.22
2022-10-31T22:24:03.236Z,35.75
2022-10-31T22:26:32.980Z,32.55
2022-10-31T22:29:03.158Z,33.20
2022-10-31T22:31:32.314Z,31.85
2022-10-31T22:34:00.205Z,33.50
2022-10-31T22:36:29.963Z,35.03
2022-10-31T22:38:58.283Z,32.17
2022-10-31T22:41:28.442Z,29.52
2022-10-31T22:43:56.898Z,34.13
2022-10-31T22:46:29.749Z,29.27
2022-10-31T22:49:00.558Z,33.67
2022-10-31T22:51:32.166Z,30.60
2022-10-31T22:54:00.171Z,32.45
2022-10-31T22:56:31.319Z,28.83
2022-10-31T22:58:59.549Z,24.43
2022-10-31T23:01:32.763Z,27.15
2022-10-31T23:04:01.340Z,27.20
2022-10-31T23:06:30.668Z,26.77
2022-10-31T23:09:00.329Z,30.75
2022-10-31T23:11:35.661Z,27.23
2022-10-31T23:14:16.219Z,30.98
2022-10-31T23:16:46.878Z,30.13
2022-10-31T23:19:22.000Z,29.15
2022-10-31T23:21:56.334Z,28.38
2022-10-31T23:24:34.422Z,27.30
2022-10-31T23:27:09.844Z,30.05
2022-10-31T23:29:46.266Z,26.70
2022-10-31T23:32:45.807Z,31.45
2022-10-31T23:35:13.154Z,25.42
2022-10-31T23:37:40.492Z,33.22
2022-10-31T23:40:10.883Z,30.38
2022-10-31T23:42:38.516Z,29.73
2022-10-31T23:45:06.495Z,27.85
2022-10-31T23:47:33.889Z,28.27
2022-10-31T23:50:01.213Z,26.42
2022-10-31T23:52:28.463Z,30.92
2022-10-31T23:54:55.879Z,28.63
2022-10-31T23:57:23.145Z,26.60
2022-10-31T23:59:50.569Z,27.58
